sensor_id;sensor_type;location;lat;lon;timestamp;P1;durP1;ratioP1;P2;durP2;ratioP2
3439;SDS011;1733;42.286;22.690;2024-03-23T00:55:56;18.30;;;10.00;;
3439;SDS011;1733;42.286;22.690;2024-03-23T00:58:23;13.80;;;8.50;;
3439;SDS011;1733;42.286;22.690;2024-03-23T01:00:48;15.60;;;8.93;;
3439;SDS011;1733;42.286;22.690;2024-03-23T01:03:15;12.93;;;9.03;;
3439;SDS011;1733;42.286;22.690;2024-03-23T01:05:40;17.40;;;8.27;;
3439;SDS011;1733;42.286;22.690;2024-03-23T01:08:07;13.17;;;8.60;;
3439;SDS011;1733;42.286;22.690;2024-03-23T01:10:32;28.80;;;12.00;;
3439;SDS011;1733;42.286;22.690;2024-03-23T01:13:00;23.40;;;11.23;;
3439;SDS011;1733;42.286;22.690;2024-03-23T01:15:26;27.37;;;10.40;;
3439;SDS011;1733;42.286;22.690;2024-03-23T01:17:53;18.27;;;11.70;;
3439;SDS011;1733;42.286;22.690;2024-03-23T01:20:18;20.53;;;12.70;;
3439;SDS011;1733;42.286;22.690;2024-03-23T01:22:44;17.30;;;10.07;;
3439;SDS011;1733;42.286;22.690;2024-03-23T01:25:10;15.20;;;9.57;;
3439;SDS011;1733;42.286;22.690;2024-03-23T01:27:37;17.43;;;9.73;;
3439;SDS011;1733;42.286;22.690;2024-03-23T01:30:04;17.70;;;8.27;;
3439;SDS011;1733;42.286;22.690;2024-03-23T01:32:31;15.13;;;8.00;;
3439;SDS011;1733;42.286;22.690;2024-03-23T01:34:56;11.77;;;7.93;;
3439;SDS011;1733;42.286;22.690;2024-03-23T01:37:23;13.60;;;6.87;;
3439;SDS011;1733;42.286;22.690;2024-03-23T01:39:48;13.07;;;7.07;;
3439;SDS011;1733;42.286;22.690;2024-03-23T01:42:16;14.80;;;6.77;;
3439;SDS011;1733;42.286;22.690;2024-03-23T01:44:41;15.43;;;7.53;;
3439;SDS011;1733;42.286;22.690;2024-03-23T01:47:09;18.80;;;10.10;;
3439;SDS011;1733;42.286;22.690;2024-03-23T01:49:35;13.60;;;8.53;;
3439;SDS011;1733;42.286;22.690;2024-03-23T01:52:02;12.47;;;8.27;;
3439;SDS011;1733;42.286;22.690;2024-03-23T01:54:27;11.90;;;8.07;;
3439;SDS011;1733;42.286;22.690;2024-03-23T01:56:55;16.60;;;9.87;;
3439;SDS011;1733;42.286;22.690;2024-03-23T01:59:21;19.73;;;10.73;;
3439;SDS011;1733;42.286;22.690;2024-03-23T02:01:47;14.63;;;9.77;;
3439;SDS011;1733;42.286;22.690;2024-03-23T02:04:14;15.90;;;8.77;;
3439;SDS011;1733;42.286;22.690;2024-03-23T02:06:41;11.90;;;8.90;;
3439;SDS011;1733;42.286;22.690;2024-03-23T02:09:07;10.57;;;8.07;;
3439;SDS011;1733;42.286;22.690;2024-03-23T02:11:33;12.97;;;8.67;;
3439;SDS011;1733;42.286;22.690;2024-03-23T02:13:59;19.90;;;10.20;;
3439;SDS011;1733;42.286;22.690;2024-03-23T02:16:25;18.17;;;10.67;;
3439;SDS011;1733;42.286;22.690;2024-03-23T02:18:51;18.47;;;10.40;;
3439;SDS011;1733;42.286;22.690;2024-03-23T02:21:18;19.73;;;9.73;;
3439;SDS011;1733;42.286;22.690;2024-03-23T02:23:46;16.47;;;10.20;;
3439;SDS011;1733;42.286;22.690;2024-03-23T02:26:12;12.63;;;8.63;;
3439;SDS011;1733;42.286;22.690;2024-03-23T02:28:39;14.83;;;8.70;;
3439;SDS011;1733;42.286;22.690;2024-03-23T02:31:06;15.87;;;7.80;;
3439;SDS011;1733;42.286;22.690;2024-03-23T02:33:31;14.03;;;8.30;;
3439;SDS011;1733;42.286;22.690;2024-03-23T02:35:59;14.20;;;8.43;;
3439;SDS011;1733;42.286;22.690;2024-03-23T02:38:26;12.70;;;8.80;;
3439;SDS011;1733;42.286;22.690;2024-03-23T02:40:52;13.47;;;8.70;;
3439;SDS011;1733;42.286;22.690;2024-03-23T02:43:19;15.37;;;10.47;;
3439;SDS011;1733;42.286;22.690;2024-03-23T02:45:46;15.07;;;9.20;;
3439;SDS011;1733;42.286;22.690;2024-03-23T02:48:13;12.43;;;8.90;;
3439;SDS011;1733;42.286;22.690;2024-03-23T02:50:38;19.53;;;8.33;;
3439;SDS011;1733;42.286;22.690;2024-03-23T02:53:05;18.73;;;8.67;;
3439;SDS011;1733;42.286;22.690;2024-03-23T02:55:30;10.30;;;8.37;;
3439;SDS011;1733;42.286;22.690;2024-03-23T02:57:58;17.67;;;8.70;;
3439;SDS011;1733;42.286;22.690;2024-03-23T03:00:27;14.43;;;8.50;;
3439;SDS011;1733;42.286;22.690;2024-03-23T03:02:53;11.90;;;9.47;;
3439;SDS011;1733;42.286;22.690;2024-03-23T03:05:19;10.80;;;8.53;;
3439;SDS011;1733;42.286;22.690;2024-03-23T03:07:45;15.57;;;8.30;;
3439;SDS011;1733;42.286;22.690;2024-03-23T03:10:11;10.53;;;8.30;;
3439;SDS011;1733;42.286;22.690;2024-03-23T03:12:37;18.07;;;9.27;;
3439;SDS011;1733;42.286;22.690;2024-03-23T03:15:05;19.30;;;8.00;;
3439;SDS011;1733;42.286;22.690;2024-03-23T03:17:31;11.03;;;8.00;;
3439;SDS011;1733;42.286;22.690;2024-03-23T03:19:57;17.40;;;11.10;;
3439;SDS011;1733;42.286;22.690;2024-03-23T03:22:24;16.27;;;8.43;;
3439;SDS011;1733;42.286;22.690;2024-03-23T03:24:49;11.33;;;8.20;;
3439;SDS011;1733;42.286;22.690;2024-03-23T03:27:16;16.83;;;9.93;;
3439;SDS011;1733;42.286;22.690;2024-03-23T03:29:41;13.10;;;8.60;;
3439;SDS011;1733;42.286;22.690;2024-03-23T03:32:09;19.17;;;8.80;;
3439;SDS011;1733;42.286;22.690;2024-03-23T03:34:35;13.10;;;9.53;;
3439;SDS011;1733;42.286;22.690;2024-03-23T03:37:01;13.03;;;9.90;;
3439;SDS011;1733;42.286;22.690;2024-03-23T03:39:27;21.70;;;11.30;;
3439;SDS011;1733;42.286;22.690;2024-03-23T03:41:53;17.23;;;9.97;;
3439;SDS011;1733;42.286;22.690;2024-03-23T03:44:19;25.43;;;12.60;;
3439;SDS011;1733;42.286;22.690;2024-03-23T03:46:46;11.40;;;9.60;;
3439;SDS011;1733;42.286;22.690;2024-03-23T03:49:12;15.33;;;11.50;;
3439;SDS011;1733;42.286;22.690;2024-03-23T03:51:39;19.70;;;12.37;;
3439;SDS011;1733;42.286;22.690;2024-03-23T03:54:04;20.27;;;12.33;;
3439;SDS011;1733;42.286;22.690;2024-03-23T03:56:31;15.63;;;9.80;;
3439;SDS011;1733;42.286;22.690;2024-03-23T03:58:56;17.00;;;9.53;;
3439;SDS011;1733;42.286;22.690;2024-03-23T04:01:23;15.97;;;12.23;;
3439;SDS011;1733;42.286;22.690;2024-03-23T04:03:49;17.70;;;9.20;;
3439;SDS011;1733;42.286;22.690;2024-03-23T04:06:19;29.40;;;16.40;;
3439;SDS011;1733;42.286;22.690;2024-03-23T04:08:45;30.80;;;14.87;;
3439;SDS011;1733;42.286;22.690;2024-03-23T04:11:12;24.57;;;12.63;;
3439;SDS011;1733;42.286;22.690;2024-03-23T04:13:37;23.57;;;12.07;;
3439;SDS011;1733;42.286;22.690;2024-03-23T04:16:06;26.33;;;11.40;;
3439;SDS011;1733;42.286;22.690;2024-03-23T04:18:32;17.70;;;9.63;;
3439;SDS011;1733;42.286;22.690;2024-03-23T04:20:58;18.33;;;9.47;;
3439;SDS011;1733;42.286;22.690;2024-03-23T04:23:26;34.87;;;18.37;;
3439;SDS011;1733;42.286;22.690;2024-03-23T04:25:52;25.43;;;15.00;;
3439;SDS011;1733;42.286;22.690;2024-03-23T04:28:18;10.43;;;9.20;;
3439;SDS011;1733;42.286;22.690;2024-03-23T04:30:45;17.07;;;9.70;;
3439;SDS011;1733;42.286;22.690;2024-03-23T04:33:10;29.23;;;12.53;;
3439;SDS011;1733;42.286;22.690;2024-03-23T04:35:37;15.20;;;9.07;;
3439;SDS011;1733;42.286;22.690;2024-03-23T04:38:02;16.90;;;9.90;;
3439;SDS011;1733;42.286;22.690;2024-03-23T04:40:31;11.43;;;8.40;;
3439;SDS011;1733;42.286;22.690;2024-03-23T04:42:58;16.40;;;8.53;;
3439;SDS011;1733;42.286;22.690;2024-03-23T04:45:24;12.60;;;10.47;;
3439;SDS011;1733;42.286;22.690;2024-03-23T04:47:51;23.33;;;8.40;;
3439;SDS011;1733;42.286;22.690;2024-03-23T04:50:17;26.83;;;12.30;;
3439;SDS011;1733;42.286;22.690;2024-03-23T04:52:44;11.70;;;9.40;;
3439;SDS011;1733;42.286;22.690;2024-03-23T04:55:11;12.90;;;10.97;;
3439;SDS011;1733;42.286;22.690;2024-03-23T04:57:40;15.23;;;8.50;;
3439;SDS011;1733;42.286;22.690;2024-03-23T05:00:06;18.37;;;9.87;;
3439;SDS011;1733;42.286;22.690;2024-03-23T05:02:42;16.23;;;9.97;;
3439;SDS011;1733;42.286;22.690;2024-03-23T05:05:07;25.37;;;11.20;;
3439;SDS011;1733;42.286;22.690;2024-03-23T05:07:34;13.57;;;10.13;;
3439;SDS011;1733;42.286;22.690;2024-03-23T05:10:00;18.03;;;10.87;;
3439;SDS011;1733;42.286;22.690;2024-03-23T05:12:26;17.93;;;11.43;;
3439;SDS011;1733;42.286;22.690;2024-03-23T05:14:54;15.83;;;10.30;;
3439;SDS011;1733;42.286;22.690;2024-03-23T05:17:19;24.10;;;13.37;;
3439;SDS011;1733;42.286;22.690;2024-03-23T05:19:46;25.33;;;13.20;;
3439;SDS011;1733;42.286;22.690;2024-03-23T05:22:11;16.33;;;12.37;;
3439;SDS011;1733;42.286;22.690;2024-03-23T05:24:38;18.07;;;11.83;;
3439;SDS011;1733;42.286;22.690;2024-03-23T05:27:03;21.30;;;13.97;;
3439;SDS011;1733;42.286;22.690;2024-03-23T05:29:31;20.17;;;12.50;;
3439;SDS011;1733;42.286;22.690;2024-03-23T05:31:58;25.63;;;14.10;;
3439;SDS011;1733;42.286;22.690;2024-03-23T05:34:25;21.53;;;14.00;;
3439;SDS011;1733;42.286;22.690;2024-03-23T05:36:50;20.83;;;13.80;;
3439;SDS011;1733;42.286;22.690;2024-03-23T05:39:17;31.87;;;14.20;;
3439;SDS011;1733;42.286;22.690;2024-03-23T05:41:43;26.43;;;14.00;;
3439;SDS011;1733;42.286;22.690;2024-03-23T05:44:10;26.17;;;14.90;;
3439;SDS011;1733;42.286;22.690;2024-03-23T05:46:36;22.93;;;14.50;;
3439;SDS011;1733;42.286;22.690;2024-03-23T05:49:04;19.90;;;12.77;;
3439;SDS011;1733;42.286;22.690;2024-03-23T05:51:30;20.90;;;13.20;;
3439;SDS011;1733;42.286;22.690;2024-03-23T05:53:57;15.30;;;11.93;;
3439;SDS011;1733;42.286;22.690;2024-03-23T05:56:22;26.50;;;12.60;;
3439;SDS011;1733;42.286;22.690;2024-03-23T05:58:51;16.43;;;11.03;;
3439;SDS011;1733;42.286;22.690;2024-03-23T06:01:16;24.57;;;10.90;;
3439;SDS011;1733;42.286;22.690;2024-03-23T06:03:43;21.40;;;13.00;;
3439;SDS011;1733;42.286;22.690;2024-03-23T06:06:10;17.60;;;13.90;;
3439;SDS011;1733;42.286;22.690;2024-03-23T06:08:38;14.13;;;10.50;;
3439;SDS011;1733;42.286;22.690;2024-03-23T06:11:03;14.80;;;9.43;;
3439;SDS011;1733;42.286;22.690;2024-03-23T06:13:31;17.67;;;12.80;;
3439;SDS011;1733;42.286;22.690;2024-03-23T06:15:57;70.90;;;10.73;;
3439;SDS011;1733;42.286;22.690;2024-03-23T06:18:23;15.70;;;11.30;;
3439;SDS011;1733;42.286;22.690;2024-03-23T06:20:50;16.43;;;9.90;;
3439;SDS011;1733;42.286;22.690;2024-03-23T06:23:17;23.40;;;12.20;;
3439;SDS011;1733;42.286;22.690;2024-03-23T07:55:56;7.93;;;5.73;;
3439;SDS011;1733;42.286;22.690;2024-03-23T07:58:23;9.23;;;6.40;;
3439;SDS011;1733;42.286;22.690;2024-03-23T08:00:48;10.10;;;6.60;;
3439;SDS011;1733;42.286;22.690;2024-03-23T08:03:15;5.60;;;5.00;;
3439;SDS011;1733;42.286;22.690;2024-03-23T08:05:41;8.00;;;5.50;;
3439;SDS011;1733;42.286;22.690;2024-03-23T08:08:07;11.33;;;5.20;;
3439;SDS011;1733;42.286;22.690;2024-03-23T08:10:33;7.17;;;5.40;;
3439;SDS011;1733;42.286;22.690;2024-03-23T08:13:01;9.00;;;6.30;;
3439;SDS011;1733;42.286;22.690;2024-03-23T08:15:26;9.87;;;5.73;;
3439;SDS011;1733;42.286;22.690;2024-03-23T08:17:53;6.07;;;5.53;;
3439;SDS011;1733;42.286;22.690;2024-03-23T08:20:19;6.70;;;5.40;;
3439;SDS011;1733;42.286;22.690;2024-03-23T08:22:46;7.50;;;5.70;;
3439;SDS011;1733;42.286;22.690;2024-03-23T08:25:12;9.13;;;5.27;;
3439;SDS011;1733;42.286;22.690;2024-03-23T08:27:38;9.73;;;5.23;;
3439;SDS011;1733;42.286;22.690;2024-03-23T08:30:06;5.20;;;4.70;;
3439;SDS011;1733;42.286;22.690;2024-03-23T08:32:32;8.90;;;5.53;;
3439;SDS011;1733;42.286;22.690;2024-03-23T08:34:58;6.60;;;5.00;;
3439;SDS011;1733;42.286;22.690;2024-03-23T08:37:24;10.93;;;5.90;;
3439;SDS011;1733;42.286;22.690;2024-03-23T08:39:50;7.43;;;5.50;;
3439;SDS011;1733;42.286;22.690;2024-03-23T08:42:18;13.37;;;5.67;;
